createdAt,value
2018-10-11T00:00:19.149Z,15.30
2018-10-11T00:01:19.178Z,15.25
2018-10-11T00:02:19.206Z,15.30
2018-10-11T00:03:19.234Z,15.27
2018-10-11T00:04:19.261Z,15.25
2018-10-11T00:05:19.292Z,15.26
2018-10-11T00:06:19.318Z,15.20
2018-10-11T00:07:19.347Z,15.16
2018-10-11T00:08:19.374Z,15.20
2018-10-11T00:09:19.402Z,15.25
2018-10-11T00:10:19.431Z,15.10
2018-10-11T00:11:19.460Z,15.16
2018-10-11T00:12:19.488Z,15.19
2018-10-11T00:13:19.515Z,15.12
2018-10-11T00:14:19.543Z,15.13
2018-10-11T00:15:19.572Z,15.15
2018-10-11T00:16:19.600Z,15.04
2018-10-11T00:17:19.628Z,15.04
2018-10-11T00:18:19.656Z,15.00
2018-10-11T00:19:19.685Z,15.01
2018-10-11T00:20:19.713Z,14.98
2018-10-11T00:21:19.782Z,14.97
2018-10-11T00:22:19.773Z,14.95
2018-10-11T00:23:19.797Z,14.97
2018-10-11T00:24:19.825Z,15.02
2018-10-11T00:25:19.853Z,14.93
2018-10-11T00:26:19.881Z,15.05
2018-10-11T00:27:19.910Z,14.97
2018-10-11T00:28:19.936Z,14.93
2018-10-11T00:29:19.969Z,14.90
2018-10-11T00:30:19.997Z,14.98
2018-10-11T00:31:20.029Z,14.95
2018-10-11T00:32:20.050Z,15.00
2018-10-11T00:33:20.077Z,15.02
2018-10-11T00:34:20.106Z,15.07
2018-10-11T00:35:20.136Z,15.07
2018-10-11T00:36:20.164Z,15.04
2018-10-11T00:37:20.189Z,15.12
2018-10-11T00:38:20.218Z,15.07
2018-10-11T00:39:20.247Z,15.04
2018-10-11T00:40:20.273Z,15.07
2018-10-11T00:41:20.302Z,15.07
2018-10-11T00:42:20.331Z,15.08
2018-10-11T00:43:20.358Z,15.16
2018-10-11T00:44:20.387Z,15.12
2018-10-11T00:45:20.414Z,15.13
2018-10-11T00:46:33.178Z,15.16
2018-10-11T00:47:20.469Z,15.20
2018-10-11T00:48:20.497Z,15.07
2018-10-11T00:49:20.546Z,15.10
2018-10-11T00:50:20.553Z,15.04
2018-10-11T00:51:20.582Z,15.00
2018-10-11T00:52:20.608Z,15.05
2018-10-11T00:53:20.637Z,15.02
2018-10-11T00:54:20.665Z,15.04
2018-10-11T00:55:20.692Z,15.15
2018-10-11T00:56:20.721Z,15.10
2018-10-11T00:57:20.748Z,15.07
2018-10-11T00:58:20.777Z,15.07
2018-10-11T00:59:20.805Z,15.04
2018-10-11T01:00:23.454Z,15.13
2018-10-11T01:01:20.858Z,15.18
2018-10-11T01:02:20.885Z,15.10
2018-10-11T01:03:20.913Z,15.25
2018-10-11T01:04:20.941Z,15.13
2018-10-11T01:05:20.971Z,15.20
2018-10-11T01:06:20.998Z,15.18
2018-10-11T01:07:21.025Z,15.22
2018-10-11T01:08:21.052Z,15.20
2018-10-11T01:09:21.156Z,15.20
2018-10-11T01:10:21.110Z,15.22
2018-10-11T01:11:21.136Z,15.19
2018-10-11T01:12:21.164Z,15.16
2018-10-11T01:13:21.192Z,15.15
2018-10-11T01:14:21.219Z,15.12
2018-10-11T01:15:21.248Z,15.07
2018-10-11T01:16:21.275Z,15.04
2018-10-11T01:17:21.306Z,15.04
2018-10-11T01:18:21.332Z,14.89
2018-10-11T01:19:21.359Z,15.04
2018-10-11T01:20:21.387Z,14.95
2018-10-11T01:21:21.414Z,14.93
2018-10-11T01:22:21.446Z,14.90
2018-10-11T01:23:21.470Z,14.87
2018-10-11T01:24:21.498Z,14.74
2018-10-11T01:25:21.528Z,14.80
2018-10-11T01:26:21.554Z,14.70
2018-10-11T01:27:21.583Z,14.70
2018-10-11T01:28:21.615Z,14.67
2018-10-11T01:29:21.640Z,14.67
2018-10-11T01:30:21.667Z,14.74
2018-10-11T01:31:21.694Z,14.70
2018-10-11T01:32:21.721Z,14.74
2018-10-11T01:33:21.749Z,14.74
2018-10-11T01:34:21.781Z,14.74
2018-10-11T01:35:21.805Z,14.64
2018-10-11T01:36:21.832Z,14.70
2018-10-11T01:37:21.860Z,14.77
2018-10-11T01:38:21.890Z,14.79
2018-10-11T01:39:21.916Z,14.77
2018-10-11T01:40:21.945Z,14.74
2018-10-11T01:41:21.972Z,14.70
2018-10-11T01:42:22.002Z,14.74
2018-10-11T01:43:22.029Z,14.70
2018-10-11T01:44:22.055Z,14.70
2018-10-11T01:45:22.083Z,14.57
2018-10-11T01:46:22.111Z,14.57
2018-10-11T01:47:22.140Z,14.56
2018-10-11T01:48:22.166Z,14.52
2018-10-11T01:49:22.194Z,14.46
2018-10-11T01:50:22.222Z,14.51
2018-10-11T01:51:22.250Z,14.42
2018-10-11T01:52:22.277Z,14.44
2018-10-11T01:53:22.304Z,14.42
2018-10-11T01:54:22.333Z,14.39
2018-10-11T01:55:22.362Z,14.45
2018-10-11T01:56:22.389Z,14.45
2018-10-11T01:57:22.418Z,14.31
2018-10-11T01:58:22.443Z,14.36
2018-10-11T01:59:22.472Z,14.41
2018-10-11T02:00:22.498Z,14.34
2018-10-11T02:01:22.530Z,14.34
2018-10-11T02:02:22.556Z,14.30
2018-10-11T02:03:22.588Z,14.34
2018-10-11T02:04:22.610Z,14.27
2018-10-11T02:05:22.638Z,14.30
2018-10-11T02:06:22.666Z,14.34
2018-10-11T02:07:22.695Z,14.34
2018-10-11T02:08:22.720Z,14.30
2018-10-11T02:09:22.796Z,14.34
2018-10-11T02:10:22.777Z,14.34
2018-10-11T02:11:22.804Z,14.36
2018-10-11T02:12:22.831Z,14.31
2018-10-11T02:13:22.862Z,14.31
2018-10-11T02:14:22.888Z,14.31
2018-10-11T02:15:22.919Z,14.33
2018-10-11T02:16:22.942Z,14.28
2018-10-11T02:17:22.971Z,14.27
2018-10-11T02:18:22.998Z,14.26
2018-10-11T02:19:23.025Z,14.26
2018-10-11T02:20:23.053Z,14.21
2018-10-11T02:21:23.081Z,14.27
2018-10-11T02:22:23.108Z,14.16
2018-10-11T02:23:23.136Z,14.23
2018-10-11T02:24:23.163Z,14.16
2018-10-11T02:25:23.195Z,14.20
2018-10-11T02:26:23.220Z,14.27
2018-10-11T02:27:23.247Z,14.19
2018-10-11T02:28:23.274Z,14.23
2018-10-11T02:29:23.338Z,14.13
2018-10-11T02:30:23.331Z,14.19
2018-10-11T02:31:23.361Z,14.08
2018-10-11T02:32:23.386Z,14.08
2018-10-11T02:33:23.413Z,14.12
2018-10-11T02:34:23.441Z,14.20
2018-10-11T02:35:23.468Z,14.16
2018-10-11T02:36:23.495Z,14.15
2018-10-11T02:37:23.524Z,14.15
2018-10-11T02:38:23.551Z,14.15
2018-10-11T02:39:23.578Z,14.16
2018-10-11T02:40:23.626Z,14.21
2018-10-11T02:41:23.632Z,14.19
2018-10-11T02:42:23.660Z,14.12
2018-10-11T02:43:24.442Z,14.15
2018-10-11T02:44:23.715Z,14.13
2018-10-11T02:45:23.742Z,14.13
2018-10-11T02:46:23.770Z,14.08
2018-10-11T02:47:23.799Z,14.19
2018-10-11T02:48:23.824Z,14.09
2018-10-11T02:49:23.852Z,14.09
2018-10-11T02:50:23.880Z,14.02
2018-10-11T02:51:23.912Z,14.02
2018-10-11T02:52:23.937Z,14.02
2018-10-11T02:53:23.961Z,13.95
2018-10-11T02:54:23.994Z,13.93
2018-10-11T02:55:24.017Z,14.01
2018-10-11T02:56:24.044Z,13.90
2018-10-11T02:57:24.072Z,13.90
2018-10-11T02:58:24.099Z,13.99
2018-10-11T02:59:24.127Z,13.97
2018-10-11T03:00:24.154Z,13.94
2018-10-11T03:01:24.182Z,13.95
2018-10-11T03:02:24.210Z,14.01
2018-10-11T03:03:24.237Z,13.91
2018-10-11T03:04:24.265Z,13.95
2018-10-11T03:05:24.291Z,13.90
2018-10-11T03:06:24.320Z,13.93
2018-10-11T03:07:24.347Z,13.94
2018-10-11T03:08:24.373Z,13.94
2018-10-11T03:09:24.401Z,13.94
2018-10-11T03:10:24.430Z,13.91
2018-10-11T03:11:24.457Z,13.99
2018-10-11T03:12:24.483Z,13.91
2018-10-11T03:13:24.512Z,13.93
2018-10-11T03:14:24.540Z,13.93
2018-10-11T03:15:24.567Z,13.97
2018-10-11T03:16:24.593Z,14.03
2018-10-11T03:17:24.624Z,13.94
2018-10-11T03:18:24.652Z,13.95
2018-10-11T03:19:24.678Z,13.93
2018-10-11T03:20:24.705Z,14.01
2018-10-11T03:21:24.731Z,13.93
2018-10-11T03:22:24.760Z,14.03
2018-10-11T03:23:24.786Z,13.93
2018-10-11T03:24:24.813Z,14.01
2018-10-11T03:25:24.841Z,13.99
2018-10-11T03:26:24.868Z,14.02
2018-10-11T03:27:24.896Z,14.05
2018-10-11T03:28:24.922Z,14.01
2018-10-11T03:29:24.952Z,14.02
2018-10-11T03:30:24.978Z,14.01
2018-10-11T03:31:25.005Z,14.03
2018-10-11T03:32:25.035Z,14.03
2018-10-11T03:33:25.059Z,14.06
2018-10-11T03:34:25.087Z,14.03
2018-10-11T03:35:25.114Z,14.02
2018-10-11T03:36:25.142Z,14.08
2018-10-11T03:37:25.168Z,14.05
2018-10-11T03:38:25.196Z,14.05
2018-10-11T03:39:25.224Z,14.02
2018-10-11T03:40:25.252Z,14.08
2018-10-11T03:41:25.278Z,14.09
2018-10-11T03:42:25.305Z,14.06
2018-10-11T03:43:25.334Z,13.93
2018-10-11T03:44:25.370Z,13.93
2018-10-11T03:45:25.389Z,13.91
2018-10-11T03:46:25.424Z,13.95
2018-10-11T03:47:25.444Z,13.84
2018-10-11T03:48:25.469Z,13.83
2018-10-11T03:49:25.501Z,13.87
2018-10-11T03:50:25.524Z,13.97
2018-10-11T03:51:25.552Z,13.88
2018-10-11T03:52:25.578Z,13.91
2018-10-11T03:53:25.606Z,13.76
2018-10-11T03:54:25.635Z,13.84
2018-10-11T03:55:25.661Z,13.76
2018-10-11T03:56:25.687Z,13.79
2018-10-11T03:57:25.717Z,13.78
2018-10-11T03:58:25.743Z,13.75
2018-10-11T03:59:25.775Z,13.72
2018-10-11T04:00:25.797Z,13.75
2018-10-11T04:01:25.824Z,13.72
2018-10-11T04:02:25.853Z,13.69
2018-10-11T04:03:25.881Z,13.70
2018-10-11T04:04:25.906Z,13.72
2018-10-11T04:05:25.934Z,13.63
2018-10-11T04:06:25.961Z,13.69
2018-10-11T04:07:25.992Z,13.70
2018-10-11T04:08:26.016Z,13.70
2018-10-11T04:09:26.042Z,13.70
2018-10-11T04:10:26.070Z,13.62
2018-10-11T04:11:26.109Z,13.65
2018-10-11T04:12:26.125Z,13.65
2018-10-11T04:13:26.152Z,13.68
2018-10-11T04:14:26.180Z,13.58
2018-10-11T04:15:26.235Z,13.58
2018-10-11T04:16:26.236Z,13.55
2018-10-11T04:17:26.262Z,13.57
2018-10-11T04:18:26.289Z,13.50
2018-10-11T04:19:26.317Z,13.54
2018-10-11T04:20:26.343Z,13.48
2018-10-11T04:21:26.377Z,13.60
2018-10-11T04:22:26.397Z,13.55
2018-10-11T04:23:26.425Z,13.60
2018-10-11T04:24:26.451Z,13.51
2018-10-11T04:25:26.480Z,13.60
2018-10-11T04:26:26.506Z,13.57
2018-10-11T04:27:26.537Z,13.63
2018-10-11T04:28:26.560Z,13.50
2018-10-11T04:29:26.587Z,13.47
2018-10-11T04:30:26.617Z,13.57
2018-10-11T04:31:26.642Z,13.47
2018-10-11T04:32:26.669Z,13.45
2018-10-11T04:33:26.697Z,13.47
2018-10-11T04:34:26.729Z,13.37
2018-10-11T04:35:26.751Z,13.40
2018-10-11T04:36:26.777Z,13.44
2018-10-11T04:37:26.806Z,13.39
2018-10-11T04:38:26.833Z,13.42
2018-10-11T04:39:26.860Z,13.35
2018-10-11T04:40:26.887Z,13.50
2018-10-11T04:41:26.915Z,13.42
2018-10-11T04:42:26.941Z,13.47
2018-10-11T04:43:26.969Z,13.42
2018-10-11T04:44:26.995Z,13.40
2018-10-11T04:45:27.022Z,13.44
2018-10-11T04:46:27.051Z,13.40
2018-10-11T04:47:27.077Z,13.36
2018-10-11T04:48:27.108Z,13.40
2018-10-11T04:49:27.131Z,13.42
2018-10-11T04:50:27.161Z,13.40
2018-10-11T04:51:27.186Z,13.48
2018-10-11T04:52:27.212Z,13.48
2018-10-11T04:53:27.257Z,13.42
2018-10-11T04:54:27.272Z,13.42
2018-10-11T04:55:27.296Z,13.44
2018-10-11T04:56:27.322Z,13.37
2018-10-11T04:57:27.349Z,13.48
2018-10-11T04:58:27.376Z,13.42
2018-10-11T04:59:27.405Z,13.42
2018-10-11T05:00:27.430Z,13.44
2018-10-11T05:01:27.457Z,13.48
2018-10-11T05:02:27.485Z,13.44
2018-10-11T05:03:27.512Z,13.36
2018-10-11T05:04:27.540Z,13.36
2018-10-11T05:05:27.598Z,13.44
2018-10-11T05:06:27.594Z,13.42
2018-10-11T05:07:27.622Z,13.42
2018-10-11T05:08:27.647Z,13.35
2018-10-11T05:09:27.677Z,13.36
2018-10-11T05:10:27.702Z,13.29
2018-10-11T05:11:27.729Z,13.44
2018-10-11T05:12:27.757Z,13.36
2018-10-11T05:13:27.784Z,13.36
2018-10-11T05:14:27.811Z,13.25
2018-10-11T05:15:27.838Z,13.21
2018-10-11T05:16:27.864Z,13.25
2018-10-11T05:17:27.941Z,13.25
2018-10-11T05:18:27.919Z,13.31
2018-10-11T05:19:27.947Z,13.25
2018-10-11T05:20:27.973Z,13.28
2018-10-11T05:21:28.033Z,13.32
2018-10-11T05:22:28.027Z,13.32
2018-10-11T05:23:28.055Z,13.28
2018-10-11T05:24:28.082Z,13.42
2018-10-11T05:25:28.108Z,13.45
2018-10-11T05:26:28.136Z,13.25
2018-10-11T05:27:28.164Z,13.35
2018-10-11T05:28:28.189Z,13.21
2018-10-11T05:29:28.217Z,13.37
2018-10-11T05:30:28.249Z,13.40
2018-10-11T05:31:28.271Z,13.39
2018-10-11T05:32:28.299Z,13.42
2018-10-11T05:33:28.327Z,13.37
2018-10-11T05:34:28.353Z,13.28
2018-10-11T05:35:28.380Z,13.27
2018-10-11T05:36:28.406Z,13.29
2018-10-11T05:37:28.434Z,13.21
2018-10-11T05:38:28.461Z,13.24
2018-10-11T05:39:28.488Z,13.28
2018-10-11T05:40:28.515Z,13.25
2018-10-11T05:41:28.541Z,13.20
2018-10-11T05:42:28.569Z,13.29
2018-10-11T05:43:28.597Z,13.20
2018-10-11T05:44:28.676Z,13.17
2018-10-11T05:45:28.650Z,13.17
2018-10-11T05:46:28.677Z,13.16
2018-10-11T05:47:28.705Z,13.24
2018-10-11T05:48:28.730Z,13.11
2018-10-11T05:49:28.757Z,13.21
2018-10-11T05:50:28.785Z,13.27
2018-10-11T05:51:28.812Z,13.32
2018-10-11T05:52:28.840Z,13.32
2018-10-11T05:53:28.872Z,13.32
2018-10-11T05:54:28.893Z,13.27
2018-10-11T05:55:28.922Z,13.31
2018-10-11T05:56:28.949Z,13.27
2018-10-11T05:57:28.976Z,13.28
2018-10-11T05:58:29.001Z,13.21
2018-10-11T05:59:29.031Z,13.24
2018-10-11T06:00:29.055Z,13.28
2018-10-11T06:01:29.084Z,13.27
2018-10-11T06:02:29.112Z,13.39
2018-10-11T06:03:29.136Z,13.25
2018-10-11T06:04:29.163Z,13.24
2018-10-11T06:05:29.190Z,13.37
2018-10-11T06:06:29.218Z,13.42
2018-10-11T06:07:29.246Z,13.40
2018-10-11T06:08:29.273Z,13.40
2018-10-11T06:09:29.300Z,13.44
2018-10-11T06:10:29.328Z,13.48
2018-10-11T06:11:29.355Z,13.51
2018-10-11T06:12:29.381Z,13.58
2018-10-11T06:13:29.409Z,13.60
2018-10-11T06:14:29.435Z,13.65
2018-10-11T06:15:29.463Z,13.68
2018-10-11T06:16:29.489Z,13.70
2018-10-11T06:17:29.516Z,13.66
2018-10-11T06:18:29.544Z,13.72
2018-10-11T06:19:29.573Z,13.73
2018-10-11T06:20:29.598Z,13.70
2018-10-11T06:21:29.626Z,13.72
2018-10-11T06:22:29.653Z,13.69
2018-10-11T06:23:29.679Z,13.81
2018-10-11T06:24:29.706Z,13.76
2018-10-11T06:25:29.737Z,13.79
2018-10-11T06:26:29.769Z,13.79
2018-10-11T06:27:29.789Z,13.79
2018-10-11T06:28:29.818Z,13.78
2018-10-11T06:29:29.843Z,13.83
2018-10-11T06:30:29.870Z,13.83
2018-10-11T06:31:29.897Z,13.78
2018-10-11T06:32:29.924Z,13.81
2018-10-11T06:33:29.950Z,13.78
2018-10-11T06:34:29.978Z,13.75
2018-10-11T06:35:30.008Z,13.86
2018-10-11T06:36:30.109Z,13.90
2018-10-11T06:37:30.061Z,13.90
2018-10-11T06:38:30.088Z,13.86
2018-10-11T06:39:30.114Z,13.91
2018-10-11T06:40:30.141Z,13.91
2018-10-11T06:41:30.168Z,13.90
2018-10-11T06:42:30.240Z,13.91
2018-10-11T06:43:30.223Z,13.97
2018-10-11T06:44:30.251Z,13.88
2018-10-11T06:45:30.281Z,13.95
2018-10-11T06:46:30.305Z,13.95
2018-10-11T06:47:30.334Z,14.06
2018-10-11T06:48:30.361Z,14.06
2018-10-11T06:49:30.387Z,14.06
2018-10-11T06:50:30.444Z,14.15
2018-10-11T06:51:30.442Z,14.12
2018-10-11T06:52:30.469Z,14.20
2018-10-11T06:53:30.497Z,14.16
2018-10-11T06:54:30.523Z,14.21
2018-10-11T06:55:30.551Z,14.19
2018-10-11T06:56:30.578Z,14.16
2018-10-11T06:57:30.606Z,14.19
2018-10-11T06:58:30.633Z,14.24
2018-10-11T06:59:30.661Z,14.26
2018-10-11T07:00:30.686Z,14.30
2018-10-11T07:01:30.714Z,14.27
2018-10-11T07:02:30.742Z,14.31
2018-10-11T07:03:30.770Z,14.31
2018-10-11T07:04:30.800Z,14.44
2018-10-11T07:05:30.825Z,14.44
2018-10-11T07:06:30.852Z,14.46
2018-10-11T07:07:30.880Z,14.49
2018-10-11T07:08:30.907Z,14.45
2018-10-11T07:09:30.935Z,14.48
2018-10-11T07:10:30.962Z,14.59
2018-10-11T07:11:30.990Z,14.61
2018-10-11T07:12:31.016Z,14.67
2018-10-11T07:13:31.043Z,14.70
2018-10-11T07:14:31.071Z,14.70
2018-10-11T07:15:31.099Z,14.71
2018-10-11T07:16:31.126Z,14.74
2018-10-11T07:17:31.153Z,14.61
2018-10-11T07:18:31.182Z,14.66
2018-10-11T07:19:31.316Z,14.77
2018-10-11T07:20:31.237Z,14.82
2018-10-11T07:21:31.263Z,14.83
2018-10-11T07:22:31.291Z,14.83
2018-10-11T07:23:31.320Z,14.85
2018-10-11T07:24:31.345Z,14.90
2018-10-11T07:25:31.375Z,14.93
2018-10-11T07:26:31.401Z,14.87
2018-10-11T07:27:31.430Z,14.95
2018-10-11T07:28:31.455Z,14.94
2018-10-11T07:29:31.483Z,14.94
2018-10-11T07:30:31.516Z,15.04
2018-10-11T07:31:31.539Z,15.08
2018-10-11T07:32:31.566Z,15.12
2018-10-11T07:33:31.593Z,15.19
2018-10-11T07:34:31.671Z,15.08
2018-10-11T07:35:31.942Z,15.16
2018-10-11T07:36:31.678Z,15.22
2018-10-11T07:37:31.706Z,15.30
2018-10-11T07:38:31.733Z,15.37
2018-10-11T07:39:31.760Z,15.30
2018-10-11T07:40:31.846Z,15.33
2018-10-11T07:41:31.816Z,15.33
2018-10-11T07:42:31.843Z,15.41
2018-10-11T07:43:31.873Z,15.41
2018-10-11T07:44:31.899Z,15.47
2018-10-11T07:45:31.927Z,15.58
2018-10-11T07:46:31.955Z,15.56
2018-10-11T07:47:31.982Z,15.55
2018-10-11T07:48:32.010Z,15.59
2018-10-11T07:49:32.037Z,15.60
2018-10-11T07:50:32.065Z,15.67
2018-10-11T07:51:32.093Z,15.77
2018-10-11T07:52:32.120Z,15.81
2018-10-11T07:53:32.151Z,15.88
2018-10-11T07:54:32.177Z,15.92
2018-10-11T07:55:32.204Z,16.00
2018-10-11T07:56:32.232Z,15.93
2018-10-11T07:57:32.260Z,16.06
2018-10-11T07:58:32.288Z,16.16
2018-10-11T07:59:32.317Z,16.21
2018-10-11T08:00:32.343Z,16.25
2018-10-11T08:01:32.385Z,16.36
2018-10-11T08:02:32.399Z,16.44
2018-10-11T08:03:32.468Z,16.51
2018-10-11T08:04:32.455Z,16.52
2018-10-11T08:05:32.482Z,16.66
2018-10-11T08:06:32.511Z,16.58
2018-10-11T08:07:32.679Z,16.76
2018-10-11T08:08:32.632Z,16.90
2018-10-11T08:09:32.595Z,16.88
2018-10-11T08:10:32.680Z,16.91
2018-10-11T08:11:32.691Z,17.09
2018-10-11T08:12:32.679Z,17.13
2018-10-11T08:13:32.776Z,17.36
2018-10-11T08:14:32.736Z,17.54
2018-10-11T08:15:32.765Z,17.98
2018-10-11T08:16:32.824Z,18.65
2018-10-11T08:17:33.245Z,19.19
2018-10-11T08:18:32.850Z,19.06
2018-10-11T08:19:33.065Z,18.61
2018-10-11T08:20:32.969Z,18.23
2018-10-11T08:21:32.987Z,18.01
2018-10-11T08:22:32.962Z,18.02
2018-10-11T08:23:32.993Z,18.02
2018-10-11T08:24:33.035Z,18.01
2018-10-11T08:25:33.529Z,18.24
2018-10-11T08:26:33.099Z,18.91
2018-10-11T08:27:33.110Z,20.11
2018-10-11T08:29:25.715Z,21.51
2018-10-11T08:30:25.743Z,21.97
2018-10-11T08:31:27.197Z,22.55
2018-10-11T08:32:25.974Z,22.60
2018-10-11T08:34:08.385Z,22.57
2018-10-11T08:35:08.414Z,22.64
2018-10-11T08:36:08.447Z,22.94
2018-10-11T08:37:08.476Z,22.99
2018-10-11T08:38:08.707Z,23.10
2018-10-11T08:39:08.539Z,23.60
2018-10-11T08:40:08.570Z,24.03
2018-10-11T08:41:08.601Z,24.34
2018-10-11T08:42:08.633Z,24.64
2018-10-11T08:43:08.663Z,24.03
2018-10-11T08:44:08.743Z,24.22
2018-10-11T08:45:08.731Z,24.49
2018-10-11T08:46:08.762Z,24.59
2018-10-11T08:47:09.407Z,24.34
2018-10-11T08:50:01.472Z,24.49
2018-10-11T08:51:01.493Z,25.07
2018-10-11T08:52:01.520Z,25.22
2018-10-11T08:53:01.547Z,25.56
2018-10-11T08:54:01.649Z,25.67
2018-10-11T08:55:01.618Z,25.33
2018-10-11T08:56:01.724Z,25.42
2018-10-11T08:57:01.696Z,25.41
2018-10-11T08:58:01.723Z,25.76
2018-10-11T08:59:01.800Z,25.93
2018-10-11T09:00:04.416Z,25.70
2018-10-11T09:01:01.829Z,25.96
2018-10-11T09:02:01.864Z,25.97
2018-10-11T09:03:01.902Z,26.41
2018-10-11T09:04:02.015Z,26.61
2018-10-11T09:05:02.062Z,26.86
2018-10-11T09:06:02.013Z,26.72
2018-10-11T09:07:02.048Z,26.72
2018-10-11T09:08:02.085Z,26.45
2018-10-11T09:09:02.129Z,26.68
2018-10-11T09:10:02.160Z,26.99
2018-10-11T09:11:44.755Z,26.60
2018-10-11T09:12:44.792Z,26.71
2018-10-11T09:13:44.833Z,26.75
2018-10-11T09:14:44.867Z,26.87
2018-10-11T09:15:44.929Z,26.84
2018-10-11T09:16:44.941Z,26.93
2018-10-11T09:17:44.978Z,26.82
2018-10-11T09:18:45.017Z,26.68
2018-10-11T09:19:45.054Z,26.82
2018-10-11T09:20:45.093Z,26.89
2018-10-11T09:22:27.692Z,27.01
2018-10-11T09:23:28.003Z,26.89
2018-10-11T09:24:27.769Z,26.94
2018-10-11T09:25:27.807Z,26.72
2018-10-11T09:26:27.844Z,26.19
2018-10-11T09:27:27.892Z,26.35
2018-10-11T09:28:27.927Z,26.59
2018-10-11T09:29:27.965Z,26.64
2018-10-11T09:30:28.046Z,26.30
2018-10-11T09:31:28.037Z,26.27
2018-10-11T09:32:28.075Z,26.61
2018-10-11T09:33:28.114Z,26.54
2018-10-11T09:34:28.154Z,27.13
2018-10-11T09:35:28.191Z,27.00
2018-10-11T09:37:15.866Z,27.48
2018-10-11T09:38:15.905Z,27.84
2018-10-11T09:39:15.944Z,27.61
2018-10-11T09:40:15.983Z,27.42
2018-10-11T09:41:16.021Z,27.45
2018-10-11T09:42:16.060Z,27.89
2018-10-11T09:43:16.161Z,28.02
2018-10-11T09:44:16.137Z,28.36
2018-10-11T09:45:16.177Z,28.46
2018-10-11T09:46:19.240Z,28.63
2018-10-11T09:47:16.254Z,28.35
2018-10-11T09:48:16.291Z,28.11
2018-10-11T09:49:16.329Z,28.05
2018-10-11T09:50:16.368Z,27.81
2018-10-11T09:51:16.407Z,27.79
2018-10-11T09:52:19.674Z,27.64
2018-10-11T09:53:16.485Z,27.66
2018-10-11T09:54:16.531Z,27.89
2018-10-11T09:57:42.468Z,27.94
2018-10-11T09:58:42.507Z,28.27
2018-10-11T09:59:42.546Z,28.16
2018-10-11T10:00:42.584Z,28.38
2018-10-11T10:01:42.625Z,28.49
2018-10-11T10:02:42.663Z,28.42
2018-10-11T10:03:42.703Z,28.20
2018-10-11T10:04:42.741Z,28.02
2018-10-11T10:05:42.786Z,28.21
2018-10-11T10:06:42.820Z,28.42
2018-10-11T10:07:42.859Z,28.68
2018-10-11T10:08:42.898Z,28.90
2018-10-11T10:09:43.004Z,28.63
2018-10-11T10:10:42.977Z,28.95
2018-10-11T10:11:43.016Z,29.58
2018-10-11T10:12:43.058Z,29.84
2018-10-11T10:13:44.105Z,29.36
2018-10-11T10:14:43.133Z,28.95
2018-10-11T10:15:43.245Z,29.02
2018-10-11T10:16:43.211Z,29.35
2018-10-11T10:17:43.251Z,29.35
2018-10-11T10:18:43.292Z,28.86
2018-10-11T10:19:43.331Z,28.90
2018-10-11T10:20:43.369Z,29.36
2018-10-11T10:21:43.503Z,29.70
2018-10-11T10:22:43.449Z,29.81
2018-10-11T10:23:43.490Z,30.00
2018-10-11T10:24:43.529Z,30.14
2018-10-11T10:25:43.567Z,30.09
2018-10-11T10:26:43.669Z,29.51
2018-10-11T10:27:43.648Z,29.61
2018-10-11T10:28:43.686Z,29.75
2018-10-11T10:29:43.726Z,29.61
2018-10-11T10:30:43.766Z,29.98
2018-10-11T10:31:43.806Z,30.32
2018-10-11T10:32:43.845Z,30.60
2018-10-11T10:33:43.888Z,30.14
2018-10-11T10:34:43.925Z,30.16
2018-10-11T10:35:43.966Z,30.04
2018-10-11T10:36:44.016Z,30.47
2018-10-11T10:37:44.044Z,30.64
2018-10-11T10:38:44.085Z,30.77
2018-10-11T10:39:44.253Z,30.45
2018-10-11T10:40:44.171Z,30.48
2018-10-11T10:41:44.205Z,30.66
2018-10-11T10:42:44.245Z,30.84
2018-10-11T10:43:44.285Z,30.64
2018-10-11T10:44:44.324Z,30.26
2018-10-11T10:45:44.365Z,30.49
2018-10-11T10:46:44.406Z,30.40
2018-10-11T10:47:44.447Z,30.34
2018-10-11T10:48:44.559Z,30.26
2018-10-11T10:49:44.527Z,30.56
2018-10-11T10:50:44.567Z,30.63
2018-10-11T10:51:44.607Z,30.60
2018-10-11T10:52:44.649Z,30.81
2018-10-11T10:53:44.687Z,31.03
2018-10-11T10:54:44.728Z,30.75
2018-10-11T10:55:44.777Z,30.71
2018-10-11T10:56:44.808Z,30.67
2018-10-11T10:57:44.849Z,30.48
2018-10-11T10:58:44.893Z,30.19
2018-10-11T10:59:44.931Z,30.49
2018-10-11T11:00:44.971Z,30.84
2018-10-11T11:01:45.012Z,30.75
2018-10-11T11:02:45.053Z,30.89
2018-10-11T11:03:45.094Z,30.96
2018-10-11T11:04:45.133Z,30.82
2018-10-11T11:05:45.175Z,30.63
2018-10-11T11:06:45.215Z,30.63
2018-10-11T11:07:45.258Z,30.99
2018-10-11T11:08:45.296Z,31.23
2018-10-11T11:09:45.337Z,31.44
2018-10-11T11:10:45.379Z,31.59
2018-10-11T11:11:45.421Z,30.91
2018-10-11T11:12:45.459Z,30.75
2018-10-11T11:13:45.501Z,30.16
2018-10-11T11:14:45.541Z,29.79
2018-10-11T11:15:45.582Z,29.92
2018-10-11T11:16:45.622Z,30.32
2018-10-11T11:17:45.664Z,30.86
2018-10-11T11:18:45.743Z,31.04
2018-10-11T11:19:45.748Z,31.01
2018-10-11T11:20:45.785Z,31.45
2018-10-11T11:21:45.825Z,31.86
2018-10-11T11:22:45.873Z,31.95
2018-10-11T11:23:45.910Z,31.87
2018-10-11T11:24:45.946Z,31.45
2018-10-11T11:25:45.986Z,31.22
2018-10-11T11:26:46.028Z,30.82
2018-10-11T11:27:46.068Z,30.93
2018-10-11T11:28:46.108Z,31.37
2018-10-11T11:29:46.194Z,31.59
2018-10-11T11:30:46.191Z,31.33
2018-10-11T11:31:46.231Z,31.33
2018-10-11T11:32:46.270Z,31.36
2018-10-11T11:33:46.316Z,31.63
2018-10-11T11:34:46.351Z,31.25
2018-10-11T11:35:46.392Z,31.68
2018-10-11T11:36:46.433Z,30.99
2018-10-11T11:37:46.473Z,30.81
2018-10-11T11:38:46.513Z,31.26
2018-10-11T11:39:46.556Z,31.65
2018-10-11T11:40:46.593Z,31.37
2018-10-11T11:41:46.634Z,30.44
2018-10-11T11:42:46.675Z,30.02
2018-10-11T11:43:46.715Z,29.65
2018-10-11T11:44:46.755Z,29.50
2018-10-11T11:45:46.897Z,29.02
2018-10-11T11:46:46.834Z,28.73
2018-10-11T11:47:46.911Z,29.01
2018-10-11T11:48:46.914Z,29.43
2018-10-11T11:49:46.952Z,29.50
2018-10-11T11:50:46.997Z,29.65
2018-10-11T11:51:47.033Z,30.19
2018-10-11T11:52:47.072Z,30.35
2018-10-11T11:53:47.113Z,30.22
2018-10-11T11:54:47.156Z,30.48
2018-10-11T11:55:47.195Z,31.21
2018-10-11T11:56:47.231Z,31.43
2018-10-11T11:57:47.275Z,31.77
2018-10-11T11:58:47.309Z,31.44
2018-10-11T11:59:47.349Z,31.60
2018-10-11T12:00:47.388Z,31.82
2018-10-11T12:01:47.428Z,31.77
2018-10-11T12:02:47.591Z,31.56
2018-10-11T12:03:47.507Z,31.47
2018-10-11T12:04:47.547Z,31.06
2018-10-11T12:05:47.585Z,30.47
2018-10-11T12:06:47.628Z,30.73
2018-10-11T12:07:47.665Z,30.89
2018-10-11T12:08:47.706Z,30.89
2018-10-11T12:09:47.743Z,31.10
2018-10-11T12:10:47.796Z,31.70
2018-10-11T12:11:47.826Z,31.93
2018-10-11T12:12:47.864Z,31.97
2018-10-11T12:13:47.902Z,31.68
2018-10-11T12:14:47.942Z,31.60
2018-10-11T12:15:47.981Z,30.77
2018-10-11T12:16:48.140Z,30.14
2018-10-11T12:17:48.063Z,30.16
2018-10-11T12:18:48.099Z,29.82
2018-10-11T12:21:00.778Z,30.70
2018-10-11T12:22:00.880Z,31.03
2018-10-11T12:23:00.855Z,31.63
2018-10-11T12:24:00.896Z,31.70
2018-10-11T12:25:01.060Z,31.98
2018-10-11T12:26:00.974Z,32.56
2018-10-11T12:27:01.014Z,32.31
2018-10-11T12:28:01.054Z,32.10
2018-10-11T12:29:01.179Z,31.91
2018-10-11T12:30:01.134Z,31.81
2018-10-11T12:31:01.182Z,31.91
2018-10-11T12:32:01.210Z,32.05
2018-10-11T12:33:01.250Z,31.95
2018-10-11T12:34:01.289Z,32.08
2018-10-11T12:35:01.330Z,32.25
2018-10-11T12:36:01.368Z,32.27
2018-10-11T12:37:01.407Z,32.80
2018-10-11T12:38:01.463Z,32.42
2018-10-11T12:39:01.487Z,32.32
2018-10-11T12:40:01.526Z,31.49
2018-10-11T12:41:01.723Z,31.50
2018-10-11T12:42:01.609Z,30.91
2018-10-11T12:43:01.644Z,30.45
2018-10-11T12:44:01.694Z,30.64
2018-10-11T12:45:01.735Z,30.60
2018-10-11T12:46:01.763Z,30.70
2018-10-11T12:47:01.803Z,30.71
2018-10-11T12:48:01.842Z,30.93
2018-10-11T12:49:01.886Z,30.70
2018-10-11T12:50:01.990Z,29.92
2018-10-11T12:51:01.960Z,29.65
2018-10-11T12:52:02.048Z,30.03
2018-10-11T12:53:04.661Z,30.22
2018-10-11T12:54:02.076Z,30.40
2018-10-11T12:55:02.186Z,29.84
2018-10-11T12:56:02.153Z,29.77
2018-10-11T12:57:02.298Z,30.11
2018-10-11T12:58:02.235Z,30.51
2018-10-11T12:59:02.269Z,30.51
2018-10-11T13:00:02.308Z,30.45
2018-10-11T13:01:02.449Z,30.69
2018-10-11T13:02:02.386Z,30.73